Weather at Cameron House Hotel Seaplane Base

Public forecast

Using degrees Celsius for public forecast. Weather courtesy of forecast.io.

Closest aviation weather report (METAR) to Cameron House Hotel Seaplane Base

Closest report is Glasgow International Airport, 10.3 nm (19.1 km) SE. Retrieved 2022/08/19 13:20 UTC (40 minutes ago):

EGPF 191320Z AUTO 22021KT 9999 FEW030 SCT040 17/11 Q1009

Closest aviation forecast (TAF) to Cameron House Hotel Seaplane Base

Closest forecast is Glasgow International Airport, 10.3 nm (19.1 km) SE. Retrieved 2022/08/19 12:00 UTC (2 hours ago):

TAF EGPF 191056Z 1912/2012 22013KT 9999 SCT020 TEMPO 1912/1917 22016G26KT 5000 SHRA PROB30 TEMPO 1912/1916 4000 +SHRA BKN014 BECMG 1919/1922 22003KT BECMG 2002/2005 21015G25KT TEMPO 2002/2009 6000 RA SHRA BKN014 PROB40 TEMPO 2005/2009 3000 +SHRA BKN009CB BECMG 2006/2009 25012KT PROB40 TEMPO 2009/2012 25015G25KT